Weather at Augusta Regional At Bush Field

Public forecast

Using degrees Fahrenheit for public forecast. Weather courtesy of forecast.io.

Current aviation weather report (METAR) for Augusta Regional At Bush Field

Retrieved 2020/09/24 22:53 UTC (30 minutes ago):

KAGS 242253Z 10003KT 10SM -RA SCT044 BKN060 OVC110 23/21 A2998 RMK AO2 SLP152 P0003 T02280206

Aviation forecast (TAF) for Augusta Regional At Bush Field

Retrieved 2020/09/24 18:42 UTC (5 hours ago):

TAF KAGS 241738Z 2418/2518 12006KT P6SM SCT040 BKN100 FM241930 13006KT P6SM VCSH BKN035 TEMPO 2500/2504 5SM -SHRA OVC030 FM250400 14009KT 4SM -SHRA OVC015 WS020/18030KT